createdAt,value
2023-04-18T00:00:21.755Z,78.63
2023-04-18T00:03:24.130Z,78.73
2023-04-18T00:06:26.756Z,78.59
2023-04-18T00:09:28.647Z,79.04
2023-04-18T00:12:41.096Z,79.35
2023-04-18T00:15:44.805Z,79.04
2023-04-18T00:18:48.167Z,79.40
2023-04-18T00:21:50.062Z,79.71
2023-04-18T00:24:52.569Z,79.85
2023-04-18T00:27:54.514Z,80.13
2023-04-18T00:30:56.621Z,79.65
2023-04-18T00:33:58.639Z,80.33
2023-04-18T00:37:00.645Z,80.77
2023-04-18T00:40:02.579Z,80.26
2023-04-18T00:43:04.736Z,80.65
2023-04-18T00:46:07.915Z,80.74
2023-04-18T00:49:11.893Z,80.34
2023-04-18T00:52:14.314Z,80.64
2023-04-18T00:55:16.513Z,80.79
2023-04-18T00:58:18.503Z,80.72
2023-04-18T01:01:20.385Z,80.66
2023-04-18T01:04:22.445Z,80.60
2023-04-18T01:07:26.535Z,80.20
2023-04-18T01:10:31.999Z,80.48
2023-04-18T01:13:33.905Z,80.11
2023-04-18T01:16:38.863Z,79.84
2023-04-18T01:19:40.941Z,80.52
2023-04-18T01:22:42.943Z,80.52
2023-04-18T01:25:46.052Z,81.15
2023-04-18T01:28:48.014Z,80.83
2023-04-18T01:31:50.155Z,80.41
2023-04-18T01:34:52.086Z,80.04
2023-04-18T01:37:54.227Z,79.84
2023-04-18T01:40:56.186Z,79.70
2023-04-18T01:43:59.052Z,79.55
2023-04-18T01:47:01.516Z,79.81
2023-04-18T01:50:04.023Z,80.06
2023-04-18T01:53:06.277Z,79.94
2023-04-18T01:56:08.142Z,79.60
2023-04-18T01:59:10.554Z,79.41
2023-04-18T02:02:13.770Z,79.69
2023-04-18T02:05:16.092Z,79.31
2023-04-18T02:08:18.213Z,79.07
2023-04-18T02:14:52.867Z,78.80
2023-04-18T02:17:55.359Z,78.72
2023-04-18T02:20:58.705Z,78.56
2023-04-18T02:24:00.627Z,78.32
2023-04-18T02:27:02.725Z,77.79
2023-04-18T02:30:04.972Z,77.90
2023-04-18T02:33:09.177Z,77.81
2023-04-18T02:36:12.890Z,77.62
2023-04-18T02:39:15.088Z,76.54
2023-04-18T02:42:17.618Z,77.19
2023-04-18T02:45:19.535Z,77.19
2023-04-18T02:48:23.301Z,76.82
2023-04-18T02:51:26.841Z,77.01
2023-04-18T02:54:29.378Z,76.71
2023-04-18T02:57:39.579Z,76.31
2023-04-18T03:01:00.345Z,76.38
2023-04-18T03:04:25.857Z,76.10
2023-04-18T03:07:34.197Z,75.58
2023-04-18T03:10:36.251Z,76.20
2023-04-18T03:13:39.073Z,75.93
2023-04-18T03:16:41.700Z,75.74
2023-04-18T03:19:47.005Z,75.50
2023-04-18T03:22:50.750Z,75.88
2023-04-18T03:25:57.739Z,75.54
2023-04-18T03:29:02.986Z,75.36
2023-04-18T03:32:05.373Z,75.17
2023-04-18T03:35:07.996Z,74.76
2023-04-18T03:38:09.947Z,74.90
2023-04-18T03:41:14.662Z,74.94
2023-04-18T03:44:17.034Z,74.97
2023-04-18T03:47:19.029Z,74.16
2023-04-18T03:50:25.794Z,74.34
2023-04-18T03:53:29.737Z,74.08
2023-04-18T03:56:31.663Z,73.73
2023-04-18T03:59:34.634Z,73.21
2023-04-18T04:02:36.852Z,73.50
2023-04-18T04:05:38.998Z,72.35
2023-04-18T04:08:41.536Z,73.05
2023-04-18T04:11:43.483Z,72.31
2023-04-18T04:14:48.106Z,73.14
2023-04-18T04:17:51.159Z,72.48
2023-04-18T04:20:54.324Z,72.84
2023-04-18T04:24:25.467Z,72.08
2023-04-18T04:27:28.119Z,72.80
2023-04-18T04:30:31.879Z,72.71
2023-04-18T04:33:34.396Z,72.17
2023-04-18T04:36:41.283Z,72.79
2023-04-18T04:39:44.945Z,72.07
2023-04-18T04:43:01.415Z,72.52
2023-04-18T04:46:09.779Z,71.51
2023-04-18T04:49:12.207Z,71.50
2023-04-18T04:52:14.165Z,71.35
2023-04-18T04:55:17.528Z,71.29
2023-04-18T04:58:20.487Z,70.53
2023-04-18T05:10:14.051Z,70.12
2023-04-18T05:13:16.522Z,69.64
2023-04-18T05:16:18.675Z,69.34
2023-04-18T05:19:20.978Z,68.18
2023-04-18T05:22:23.145Z,67.56
2023-04-18T05:25:25.065Z,68.21
2023-04-18T05:28:27.574Z,67.94
2023-04-18T05:31:29.521Z,68.76
2023-04-18T05:34:31.877Z,68.92
2023-04-18T05:37:33.829Z,68.93
2023-04-18T05:40:35.794Z,68.18
2023-04-18T05:43:37.768Z,68.09
2023-04-18T05:46:39.687Z,67.64
2023-04-18T05:49:42.039Z,67.27
2023-04-18T05:52:44.130Z,67.50
2023-04-18T05:55:48.694Z,67.71
2023-04-18T05:58:51.411Z,67.33
2023-04-18T06:01:53.614Z,67.20
2023-04-18T06:04:56.772Z,67.67
2023-04-18T06:07:58.871Z,67.01
2023-04-18T06:11:00.961Z,67.43
2023-04-18T06:14:03.180Z,67.56
2023-04-18T06:17:07.329Z,67.66
2023-04-18T06:20:10.040Z,67.67
2023-04-18T06:23:12.107Z,68.15
2023-04-18T06:26:14.197Z,67.98
2023-04-18T06:29:18.094Z,67.39
2023-04-18T06:32:19.992Z,67.18
2023-04-18T06:35:21.910Z,67.48
2023-04-18T06:38:24.325Z,66.96
2023-04-18T06:41:26.342Z,66.38
2023-04-18T06:44:28.311Z,64.89
2023-04-18T06:47:31.178Z,65.58
2023-04-18T06:50:33.290Z,65.31
2023-04-18T06:53:35.550Z,66.37
2023-04-18T06:56:37.823Z,65.67
2023-04-18T06:59:41.445Z,64.50
2023-04-18T07:02:43.750Z,63.80
2023-04-18T07:05:46.286Z,61.27
2023-04-18T07:08:48.424Z,60.36
2023-04-18T07:11:52.557Z,61.33
2023-04-18T07:14:55.255Z,60.39
2023-04-18T07:17:57.246Z,59.30
2023-04-18T07:20:59.181Z,61.74
2023-04-18T07:24:02.862Z,61.35
2023-04-18T07:27:05.799Z,61.32
2023-04-18T07:30:08.739Z,62.31
2023-04-18T07:33:11.171Z,60.83
2023-04-18T07:36:13.252Z,60.57
2023-04-18T07:39:15.282Z,58.61
2023-04-18T07:42:17.540Z,59.69
2023-04-18T07:45:19.964Z,60.23
2023-04-18T07:48:25.452Z,60.16
2023-04-18T07:51:31.301Z,58.87
2023-04-18T07:57:50.499Z,59.26
2023-04-18T08:00:52.434Z,60.63
2023-04-18T08:03:56.276Z,58.93
2023-04-18T08:06:58.421Z,59.75
2023-04-18T08:10:00.325Z,60.74
2023-04-18T08:13:02.862Z,61.29
2023-04-18T08:16:05.042Z,61.03
2023-04-18T08:19:07.345Z,60.88
2023-04-18T08:22:10.661Z,61.06
2023-04-18T08:25:32.539Z,60.60
2023-04-18T08:28:54.296Z,59.50
2023-04-18T08:32:16.036Z,60.15
2023-04-18T08:35:37.858Z,59.35
2023-04-18T08:38:59.621Z,59.73
2023-04-18T08:42:22.520Z,59.04
2023-04-18T08:45:45.766Z,59.73
2023-04-18T08:48:50.157Z,59.02
2023-04-18T08:51:53.130Z,58.47
2023-04-18T08:54:55.049Z,59.49
2023-04-18T08:57:57.159Z,58.64
2023-04-18T09:47:36.342Z,46.54
2023-04-18T09:50:40.255Z,48.57
2023-04-18T09:53:50.341Z,47.68
2023-04-18T09:56:55.401Z,44.42
2023-04-18T10:00:24.360Z,46.04
2023-04-18T10:03:34.839Z,47.94
2023-04-18T10:06:39.792Z,51.22
2023-04-18T10:09:45.519Z,50.75
2023-04-18T10:12:50.724Z,51.63
2023-04-18T10:15:52.923Z,49.72
2023-04-18T10:18:55.196Z,49.65
2023-04-18T10:22:02.180Z,51.14
2023-04-18T10:25:04.638Z,50.70
2023-04-18T10:28:08.123Z,49.96
2023-04-18T10:31:10.042Z,48.33
2023-04-18T10:34:17.493Z,49.41
2023-04-18T10:37:19.433Z,49.28
2023-04-18T10:40:34.695Z,48.02
2023-04-18T10:44:15.246Z,48.65
2023-04-18T10:47:19.822Z,47.54
2023-04-18T10:50:23.459Z,47.83
2023-04-18T10:53:25.908Z,46.71
2023-04-18T10:56:29.102Z,45.68
2023-04-18T10:59:32.543Z,44.28
2023-04-18T11:02:35.016Z,47.52
2023-04-18T11:05:36.956Z,44.82
2023-04-18T11:08:39.235Z,43.97
2023-04-18T11:11:42.036Z,45.00
2023-04-18T11:14:46.283Z,46.15
2023-04-18T11:18:04.595Z,42.08
2023-04-18T11:21:06.691Z,41.64
2023-04-18T11:24:08.565Z,41.79
2023-04-18T11:27:12.125Z,40.14
2023-04-18T11:30:15.264Z,40.34
2023-04-18T11:33:17.335Z,41.00
2023-04-18T11:45:00.160Z,41.98
2023-04-18T11:48:02.708Z,41.55
2023-04-18T11:51:06.627Z,41.43
2023-04-18T11:54:41.678Z,39.48
2023-04-18T11:57:56.160Z,40.72
2023-04-18T12:00:58.230Z,39.15
2023-04-18T12:04:01.563Z,38.11
2023-04-18T12:07:03.730Z,39.51
2023-04-18T12:10:26.702Z,39.61
2023-04-18T12:13:32.819Z,40.17
2023-04-18T12:16:35.121Z,37.71
2023-04-18T12:19:37.290Z,38.30
2023-04-18T12:22:40.090Z,39.32
2023-04-18T12:25:42.023Z,38.82
2023-04-18T12:28:51.333Z,36.85
2023-04-18T12:31:53.466Z,37.05
2023-04-18T12:34:55.874Z,38.18
2023-04-18T12:37:59.803Z,37.74
2023-04-18T12:41:01.881Z,38.86
2023-04-18T12:44:04.345Z,41.03
2023-04-18T12:47:06.472Z,35.95
2023-04-18T12:50:11.691Z,39.25
2023-04-18T12:53:13.669Z,38.64
2023-04-18T12:56:15.691Z,38.77
2023-04-18T12:59:18.152Z,39.91
2023-04-18T13:02:20.991Z,38.43
2023-04-18T13:05:29.266Z,39.24
2023-04-18T13:08:34.801Z,38.57
2023-04-18T13:11:36.813Z,37.64
2023-04-18T13:14:39.117Z,36.05
2023-04-18T13:17:41.172Z,36.58
2023-04-18T13:20:44.084Z,36.62
2023-04-18T13:23:45.951Z,35.61
2023-04-18T13:26:47.994Z,35.20
2023-04-18T13:29:50.013Z,35.95
2023-04-18T13:32:52.205Z,35.03
2023-04-18T13:35:54.119Z,33.86
2023-04-18T13:38:56.518Z,32.46
2023-04-18T13:41:59.628Z,33.00
2023-04-18T13:45:01.807Z,37.03
2023-04-18T13:48:04.235Z,34.89
2023-04-18T13:51:06.962Z,35.84
2023-04-18T13:54:09.002Z,36.84
2023-04-18T13:57:14.653Z,35.69
2023-04-18T14:00:17.479Z,36.38
2023-04-18T14:03:19.895Z,34.53
2023-04-18T14:06:21.960Z,33.20
2023-04-18T14:09:23.998Z,35.30
2023-04-18T14:12:26.375Z,33.76
2023-04-18T14:15:28.391Z,34.52
2023-04-18T14:18:30.369Z,35.71
2023-04-18T14:21:32.358Z,35.47
2023-04-18T14:24:36.386Z,36.42
2023-04-18T14:27:38.327Z,35.79
2023-04-18T14:30:40.542Z,36.70
2023-04-18T14:33:42.607Z,36.97
2023-04-18T14:36:44.533Z,34.67
2023-04-18T14:39:46.804Z,34.09
2023-04-18T14:42:56.177Z,35.70
2023-04-18T14:45:59.557Z,34.43
2023-04-18T14:49:01.761Z,34.48
2023-04-18T14:52:03.826Z,34.02
2023-04-18T14:55:07.494Z,35.38
2023-04-18T14:58:09.357Z,34.01
2023-04-18T15:01:11.344Z,35.03
2023-04-18T15:04:13.667Z,36.13
2023-04-18T15:07:16.355Z,35.39
2023-04-18T15:10:19.657Z,37.15
2023-04-18T15:13:21.559Z,36.53
2023-04-18T15:16:23.577Z,38.47
2023-04-18T15:19:25.643Z,39.73
2023-04-18T15:22:27.739Z,36.98
2023-04-18T15:25:30.570Z,37.10
2023-04-18T15:28:32.459Z,37.02
2023-04-18T15:31:36.670Z,37.17
2023-04-18T15:34:39.794Z,38.25
2023-04-18T15:37:41.778Z,38.75
2023-04-18T15:40:43.724Z,37.79
2023-04-18T15:43:45.979Z,38.39
2023-04-18T15:46:49.207Z,38.95
2023-04-18T15:49:51.543Z,37.39
2023-04-18T15:52:53.467Z,36.80
2023-04-18T15:55:55.564Z,37.41
2023-04-18T15:58:58.786Z,38.87
2023-04-18T16:02:01.077Z,39.65
2023-04-18T16:05:03.805Z,40.22
2023-04-18T16:08:06.341Z,41.20
2023-04-18T16:11:09.012Z,41.31
2023-04-18T16:14:10.889Z,41.76
2023-04-18T16:17:12.739Z,42.74
2023-04-18T16:20:54.436Z,42.01
2023-04-18T16:24:56.135Z,42.50
2023-04-18T16:28:58.100Z,42.71
2023-04-18T16:32:59.826Z,43.23
2023-04-18T16:36:21.681Z,42.93
2023-04-18T16:39:23.809Z,42.97
2023-04-18T16:42:25.727Z,41.77
2023-04-18T16:45:27.928Z,41.86
2023-04-18T16:48:30.135Z,42.74
2023-04-18T16:51:32.140Z,43.35
2023-04-18T16:54:34.230Z,42.98
2023-04-18T16:57:36.047Z,42.97
2023-04-18T17:00:38.623Z,41.65
2023-04-18T17:03:41.062Z,40.97
2023-04-18T17:06:43.792Z,39.70
2023-04-18T17:09:45.957Z,40.45
2023-04-18T17:12:49.410Z,41.17
2023-04-18T17:15:51.332Z,40.79
2023-04-18T17:18:53.310Z,41.54
2023-04-18T17:21:55.460Z,40.80
2023-04-18T17:24:57.773Z,41.41
2023-04-18T17:28:02.146Z,40.87
2023-04-18T17:31:04.880Z,41.61
2023-04-18T17:34:07.605Z,41.61
2023-04-18T17:37:11.110Z,40.83
2023-04-18T17:40:13.820Z,41.44
2023-04-18T17:43:16.360Z,41.64
2023-04-18T17:46:18.520Z,41.67
2023-04-18T17:49:21.195Z,42.88
2023-04-18T17:52:23.480Z,42.64
2023-04-18T17:55:26.648Z,42.99
2023-04-18T17:58:28.751Z,42.70
2023-04-18T18:01:31.396Z,43.24
2023-04-18T18:04:33.940Z,44.00
2023-04-18T18:07:38.304Z,44.21
2023-04-18T18:10:48.315Z,44.90
2023-04-18T18:13:54.541Z,45.69
2023-04-18T18:16:56.772Z,45.12
2023-04-18T18:19:59.041Z,45.00
2023-04-18T18:23:01.755Z,45.49
2023-04-18T18:26:04.297Z,45.91
2023-04-18T18:29:09.898Z,46.44
2023-04-18T18:32:12.308Z,46.95
2023-04-18T18:35:14.435Z,46.50
2023-04-18T18:38:16.593Z,46.75
2023-04-18T18:44:23.127Z,46.29
2023-04-18T18:47:25.658Z,46.34
2023-04-18T18:50:27.882Z,47.30
2023-04-18T18:53:29.768Z,47.08
2023-04-18T18:56:31.963Z,47.10
2023-04-18T18:59:34.410Z,47.35
2023-04-18T19:02:37.252Z,47.74
2023-04-18T19:05:39.885Z,47.37
2023-04-18T19:08:44.417Z,48.27
2023-04-18T19:11:46.722Z,48.22
2023-04-18T19:14:52.143Z,48.63
2023-04-18T19:17:54.314Z,48.34
2023-04-18T19:20:56.561Z,48.60
2023-04-18T19:24:01.791Z,48.59
2023-04-18T19:27:04.482Z,48.72
2023-04-18T19:30:07.525Z,48.63
2023-04-18T19:33:10.184Z,48.21
2023-04-18T19:36:12.424Z,48.87
2023-04-18T19:39:15.056Z,48.92
2023-04-18T19:42:18.190Z,49.20
2023-04-18T19:45:20.724Z,48.79
2023-04-18T19:48:24.017Z,48.97
2023-04-18T19:51:27.673Z,49.47
2023-04-18T19:54:33.385Z,49.37
2023-04-18T19:57:42.117Z,49.47
2023-04-18T20:00:44.196Z,49.25
2023-04-18T20:03:48.800Z,49.29
2023-04-18T20:06:51.181Z,49.84
2023-04-18T20:10:34.549Z,49.63
2023-04-18T20:14:36.301Z,49.35
2023-04-18T20:17:58.114Z,49.21
2023-04-18T20:21:00.407Z,49.52
2023-04-18T20:24:03.674Z,49.35
2023-04-18T20:27:05.805Z,49.82
2023-04-18T20:30:08.648Z,49.20
2023-04-18T20:33:10.825Z,49.78
2023-04-18T20:36:14.116Z,48.92
2023-04-18T20:39:17.254Z,49.36
2023-04-18T20:42:19.409Z,49.21
2023-04-18T20:45:24.003Z,49.42
2023-04-18T20:48:27.779Z,49.09
2023-04-18T20:51:31.830Z,49.53
2023-04-18T20:54:33.681Z,49.88
2023-04-18T20:57:36.088Z,49.98
2023-04-18T21:00:39.493Z,50.30
2023-04-18T21:03:41.842Z,50.10
2023-04-18T21:06:44.010Z,50.28
2023-04-18T21:09:45.990Z,50.13
2023-04-18T21:12:47.964Z,49.81
2023-04-18T21:15:52.269Z,49.87
2023-04-18T21:18:55.091Z,50.34
2023-04-18T21:21:57.429Z,50.64
2023-04-18T21:24:59.438Z,50.93
2023-04-18T21:28:21.300Z,51.22
2023-04-18T21:31:24.011Z,51.09
2023-04-18T21:34:25.884Z,51.20
2023-04-18T21:37:27.822Z,51.57
2023-04-18T21:40:31.162Z,51.22
2023-04-18T21:43:33.162Z,51.88
2023-04-18T21:46:35.042Z,51.76
2023-04-18T21:49:36.954Z,51.99
2023-04-18T21:52:39.068Z,52.32
2023-04-18T21:55:41.290Z,52.33
2023-04-18T21:58:43.339Z,53.12
2023-04-18T22:01:45.287Z,52.95
2023-04-18T22:04:48.158Z,53.06
2023-04-18T22:07:57.398Z,53.26
2023-04-18T22:11:00.448Z,53.86
2023-04-18T22:14:02.951Z,54.15
2023-04-18T22:17:04.912Z,54.42
2023-04-18T22:20:08.354Z,54.66
2023-04-18T22:23:11.292Z,55.11
2023-04-18T22:26:13.286Z,55.44
2023-04-18T22:29:15.198Z,55.68
2023-04-18T22:32:17.163Z,56.13
2023-04-18T22:35:19.194Z,56.03
2023-04-18T22:38:21.143Z,56.01
2023-04-18T22:41:23.088Z,56.85
2023-04-18T22:44:25.033Z,57.41
2023-04-18T22:47:27.087Z,57.31
2023-04-18T22:50:30.193Z,57.37
2023-04-18T22:53:32.592Z,57.43
2023-04-18T22:56:34.484Z,57.49
2023-04-18T22:59:36.543Z,57.70
2023-04-18T23:02:38.721Z,57.95
2023-04-18T23:05:41.374Z,58.00
2023-04-18T23:08:43.373Z,57.74
2023-04-18T23:11:45.946Z,58.23
2023-04-18T23:14:48.084Z,59.08
2023-04-18T23:17:53.731Z,58.87
2023-04-18T23:20:55.732Z,59.75
2023-04-18T23:23:58.125Z,59.62
2023-04-18T23:26:59.931Z,59.91
2023-04-18T23:30:01.898Z,60.01
2023-04-18T23:33:04.530Z,60.88
2023-04-18T23:36:07.145Z,60.88
2023-04-18T23:39:09.105Z,60.63
2023-04-18T23:42:11.225Z,60.75
2023-04-18T23:45:13.147Z,60.48
2023-04-18T23:48:15.000Z,60.64
2023-04-18T23:51:19.065Z,59.95
2023-04-18T23:54:20.983Z,59.39
2023-04-18T23:57:23.056Z,59.70
